Time;durP1;ratioP1;P1;durP2;ratioP2;P2;SDS_P1;SDS_P2;PMS_P1;PMS_P2;Temp;Humidity;BMP_temperature;BMP_pressure;BME280_temperature;BME280_humidity;BME280_pressure;Samples;Min_cycle;Max_cycle;Signal;HPM_P1;HPM_P2
2021/07/09 00:02:16;;;;;;;13.15;10.05;;;;;;;;;;5066956;28;38294;-80
2021/07/09 00:04:46;;;;;;;12.40;10.63;;;;;;;;;;5070430;28;38732;-80
2021/07/09 00:07:12;;;;;;;12.85;9.93;;;;;;;;;;5066827;28;40609;-80
2021/07/09 00:09:47;;;;;;;9.98;8.93;;;;;;;;;;5075338;28;39925;-80
2021/07/09 00:12:14;;;;;;;14.52;8.75;;;;;;;;;;5066523;28;37989;-80
2021/07/09 00:14:41;;;;;;;15.38;10.68;;;;;;;;;;5068096;28;40778;-80
2021/07/09 00:17:09;;;;;;;12.38;8.95;;;;;;;;;;5066699;28;39034;-80
2021/07/09 00:19:35;;;;;;;12.63;10.18;;;;;;;;;;5071615;28;38959;-80
2021/07/09 00:22:03;;;;;;;12.68;10.07;;;;;;;;;;5066657;28;37124;-80
2021/07/09 00:24:30;;;;;;;12.80;10.02;;;;;;;;;;5071972;28;37664;-80
2021/07/09 00:26:56;;;;;;;12.25;9.60;;;;;;;;;;5072839;28;39040;-80
2021/07/09 00:29:23;;;;;;;12.95;9.55;;;;;;;;;;5071452;28;37027;-81
2021/07/09 00:31:49;;;;;;;13.07;9.60;;;;;;;;;;5085509;28;36870;-80
2021/07/09 00:34:29;;;;;;;12.30;10.38;;;;;;;;;;5087874;28;39540;-80
2021/07/09 00:36:56;;;;;;;13.13;9.98;;;;;;;;;;5066160;28;38393;-80
2021/07/09 00:39:22;;;;;;;14.77;10.00;;;;;;;;;;5077443;28;37278;-80
2021/07/09 00:41:54;;;;;;;13.88;9.75;;;;;;;;;;5080771;28;38459;-80
2021/07/09 00:44:31;;;;;;;15.55;10.13;;;;;;;;;;5080004;28;37150;-80
2021/07/09 00:46:57;;;;;;;13.45;10.60;;;;;;;;;;5072506;28;38318;-80
2021/07/09 00:49:24;;;;;;;12.82;10.82;;;;;;;;;;5081972;28;37712;-80
2021/07/09 00:51:50;;;;;;;14.15;10.65;;;;;;;;;;5083897;28;36371;-81
2021/07/09 00:54:17;;;;;;;12.93;10.35;;;;;;;;;;5083105;28;39376;-80
2021/07/09 00:56:53;;;;;;;15.25;10.60;;;;;;;;;;5076295;28;36515;-81
2021/07/09 00:59:23;;;;;;;14.35;10.20;;;;;;;;;;5084678;28;37360;-81
2021/07/09 01:01:59;;;;;;;16.15;11.27;;;;;;;;;;5085943;28;37898;-81
2021/07/09 01:04:34;;;;;;;14.57;10.55;;;;;;;;;;5106293;28;39147;-81
2021/07/09 01:07:04;;;;;;;14.95;10.30;;;;;;;;;;5092136;28;37931;-81
2021/07/09 01:09:47;;;;;;;13.88;9.90;;;;;;;;;;5078605;28;48675;-80
2021/07/09 01:12:47;;;;;;;15.70;10.23;;;;;;;;;;5087997;28;37204;-82
2021/07/09 01:15:16;;;;;;;15.07;9.88;;;;;;;;;;5064837;28;38594;-81
2021/07/09 01:17:42;;;;;;;13.18;8.75;;;;;;;;;;5083768;28;38770;-80
2021/07/09 01:20:12;;;;;;;13.70;10.25;;;;;;;;;;5086895;27;38499;-80
2021/07/09 01:22:42;;;;;;;15.32;10.75;;;;;;;;;;5092432;28;37264;-80
2021/07/09 01:25:10;;;;;;;13.13;10.30;;;;;;;;;;5082563;28;39122;-81
2021/07/09 01:27:39;;;;;;;16.30;11.35;;;;;;;;;;5094824;28;39170;-80
2021/07/09 01:30:06;;;;;;;13.50;11.38;;;;;;;;;;5090822;28;39348;-80
2021/07/09 01:32:40;;;;;;;14.88;11.27;;;;;;;;;;5087698;28;47760;-80
2021/07/09 01:35:07;;;;;;;12.90;10.10;;;;;;;;;;5084363;28;38964;-81
2021/07/09 01:37:35;;;;;;;15.77;10.20;;;;;;;;;;5083676;28;37804;-81
2021/07/09 01:40:04;;;;;;;14.60;11.10;;;;;;;;;;5084815;28;38610;-80
2021/07/09 01:42:31;;;;;;;15.18;9.63;;;;;;;;;;5053138;28;48324;-81
2021/07/09 01:44:57;;;;;;;11.95;8.48;;;;;;;;;;5086359;28;39269;-81
2021/07/09 01:47:24;;;;;;;13.63;9.73;;;;;;;;;;5084110;28;38387;-80
2021/07/09 01:49:55;;;;;;;14.40;9.75;;;;;;;;;;5081048;28;38860;-81
2021/07/09 01:52:24;;;;;;;14.50;10.57;;;;;;;;;;5090436;27;37033;-81
2021/07/09 01:54:52;;;;;;;14.02;10.13;;;;;;;;;;5078603;28;39730;-81
2021/07/09 01:57:19;;;;;;;12.75;9.35;;;;;;;;;;5080389;28;38177;-81
2021/07/09 01:59:46;;;;;;;16.08;10.95;;;;;;;;;;5067012;28;37888;-81
2021/07/09 02:02:19;;;;;;;16.38;10.35;;;;;;;;;;5083478;28;35796;-81
2021/07/09 02:04:47;;;;;;;11.35;9.25;;;;;;;;;;5096636;28;39066;-81
2021/07/09 02:07:26;;;;;;;13.05;10.23;;;;;;;;;;5081485;28;38706;-81
2021/07/09 02:09:58;;;;;;;16.13;9.82;;;;;;;;;;5071750;28;39028;-81
2021/07/09 02:12:26;;;;;;;12.60;9.37;;;;;;;;;;5079696;28;37210;-80
2021/07/09 02:14:54;;;;;;;12.88;9.48;;;;;;;;;;5082574;28;39623;-81
2021/07/09 02:17:23;;;;;;;13.07;9.95;;;;;;;;;;5084231;28;39304;-81
2021/07/09 02:19:50;;;;;;;15.93;9.98;;;;;;;;;;5083083;28;39703;-81
2021/07/09 02:22:23;;;;;;;12.93;9.25;;;;;;;;;;5078997;28;38618;-81
2021/07/09 02:24:50;;;;;;;12.90;9.80;;;;;;;;;;5087542;28;40135;-81
2021/07/09 02:27:17;;;;;;;12.57;9.95;;;;;;;;;;5086689;28;39442;-81
2021/07/09 02:29:45;;;;;;;11.98;9.05;;;;;;;;;;5083901;28;39772;-81
2021/07/09 02:32:13;;;;;;;10.90;9.10;;;;;;;;;;5077186;28;36787;-81
2021/07/09 02:34:40;;;;;;;11.65;8.45;;;;;;;;;;5088870;28;39811;-80
2021/07/09 02:37:11;;;;;;;14.52;9.65;;;;;;;;;;5083620;28;38805;-81
2021/07/09 02:39:40;;;;;;;13.20;8.60;;;;;;;;;;5081206;28;37252;-81
2021/07/09 02:42:08;;;;;;;11.63;9.02;;;;;;;;;;5090076;28;38486;-81
2021/07/09 02:44:35;;;;;;;13.57;10.43;;;;;;;;;;5083649;28;38701;-81
2021/07/09 02:47:01;;;;;;;13.82;10.07;;;;;;;;;;5082471;28;39763;-81
2021/07/09 02:49:28;;;;;;;13.25;8.30;;;;;;;;;;5083149;28;48501;-81
2021/07/09 02:51:54;;;;;;;16.42;10.43;;;;;;;;;;5072853;28;37017;-80
2021/07/09 02:54:21;;;;;;;14.07;10.07;;;;;;;;;;5070880;28;39409;-78
2021/07/09 02:56:48;;;;;;;15.35;10.57;;;;;;;;;;5069597;28;37307;-79
2021/07/09 02:59:17;;;;;;;13.90;10.43;;;;;;;;;;5072773;28;40013;-81
2021/07/09 03:01:43;;;;;;;16.67;10.95;;;;;;;;;;5074672;28;36083;-80
2021/07/09 03:04:14;;;;;;;18.15;12.57;;;;;;;;;;5070670;28;39580;-79
2021/07/09 03:06:41;;;;;;;20.35;12.40;;;;;;;;;;5077304;28;37931;-79
2021/07/09 03:09:15;;;;;;;19.83;12.65;;;;;;;;;;5061436;28;37460;-80
2021/07/09 03:11:53;;;;;;;18.15;12.68;;;;;;;;;;5077392;28;38706;-80
2021/07/09 03:14:21;;;;;;;21.13;13.45;;;;;;;;;;5077925;28;39948;-79
2021/07/09 03:16:47;;;;;;;20.98;14.10;;;;;;;;;;5068840;28;39574;-79
2021/07/09 03:19:21;;;;;;;22.95;14.63;;;;;;;;;;5075990;28;36790;-79
2021/07/09 03:21:58;;;;;;;26.75;15.48;;;;;;;;;;5070048;28;36624;-80
2021/07/09 03:24:26;;;;;;;20.63;14.23;;;;;;;;;;5078021;28;38153;-80
2021/07/09 03:26:54;;;;;;;23.27;15.25;;;;;;;;;;5067195;28;38143;-79
2021/07/09 03:29:20;;;;;;;23.83;14.45;;;;;;;;;;5052467;28;38210;-79
2021/07/09 03:31:48;;;;;;;27.02;16.10;;;;;;;;;;5075091;28;35907;-80
2021/07/09 03:34:14;;;;;;;28.25;16.45;;;;;;;;;;5073157;28;38441;-79
2021/07/09 03:36:45;;;;;;;32.22;17.17;;;;;;;;;;5080208;28;39787;-80
2021/07/09 03:39:17;;;;;;;24.48;16.00;;;;;;;;;;5075940;28;37889;-79
2021/07/09 03:41:48;;;;;;;29.27;16.27;;;;;;;;;;5078448;28;38938;-80
2021/07/09 03:44:15;;;;;;;25.33;15.52;;;;;;;;;;5078758;28;40245;-80
2021/07/09 03:46:42;;;;;;;23.73;14.93;;;;;;;;;;5075913;28;38111;-80
2021/07/09 03:49:09;;;;;;;26.15;16.13;;;;;;;;;;5079656;28;39749;-80
2021/07/09 03:51:39;;;;;;;27.60;15.77;;;;;;;;;;5083027;28;36752;-80
2021/07/09 03:54:06;;;;;;;25.42;15.43;;;;;;;;;;5075473;28;39670;-80
2021/07/09 03:56:32;;;;;;;27.67;16.50;;;;;;;;;;5076474;28;37621;-80
2021/07/09 03:59:01;;;;;;;27.02;15.75;;;;;;;;;;5079231;28;37248;-80
2021/07/09 04:01:35;;;;;;;27.45;16.02;;;;;;;;;;5072367;28;37556;-80
2021/07/09 04:04:08;;;;;;;27.02;16.02;;;;;;;;;;5072579;28;37966;-80
2021/07/09 04:06:39;;;;;;;;;;;;;;;;;;5094949;28;38513;-80
2021/07/09 04:09:24;;;;;;;23.98;15.30;;;;;;;;;;5071130;28;38151;-81
2021/07/09 04:11:56;;;;;;;22.10;15.05;;;;;;;;;;5082057;28;36104;-80
2021/07/09 04:14:22;;;;;;;20.47;14.43;;;;;;;;;;5077090;28;37948;-80
2021/07/09 04:16:57;;;;;;;20.52;13.45;;;;;;;;;;5084812;28;38290;-80
2021/07/09 04:19:24;;;;;;;;;;;;;;;;;;5077632;28;37550;-80
2021/07/09 04:21:52;;;;;;;23.23;14.70;;;;;;;;;;5084158;28;38464;-80
2021/07/09 04:24:18;;;;;;;25.92;14.77;;;;;;;;;;5080091;28;38218;-80
2021/07/09 04:26:50;;;;;;;20.20;13.85;;;;;;;;;;5073595;28;38787;-80
2021/07/09 04:29:35;;;;;;;19.88;13.05;;;;;;;;;;5086814;28;38848;-81
2021/07/09 04:32:13;;;;;;;21.45;13.85;;;;;;;;;;5088039;28;36536;-81
2021/07/09 04:34:42;;;;;;;23.10;15.02;;;;;;;;;;5071840;28;37734;-80
2021/07/09 04:37:19;;;;;;;21.77;14.90;;;;;;;;;;5070651;28;38713;-80
2021/07/09 04:39:51;;;;;;;21.30;14.30;;;;;;;;;;5079861;28;37071;-80
2021/07/09 04:42:26;;;;;;;22.13;14.35;;;;;;;;;;5079923;28;37614;-80
2021/07/09 04:45:00;;;;;;;17.95;13.13;;;;;;;;;;5087020;28;38967;-81
2021/07/09 04:47:26;;;;;;;21.65;15.02;;;;;;;;;;5080525;28;38393;-81
2021/07/09 04:49:53;;;;;;;19.38;13.20;;;;;;;;;;5086708;28;39623;-80
2021/07/09 04:52:32;;;;;;;21.77;14.23;;;;;;;;;;5073341;28;37229;-81
2021/07/09 04:55:05;;;;;;;26.20;15.40;;;;;;;;;;5088252;28;38796;-81
2021/07/09 04:57:33;;;;;;;26.80;14.18;;;;;;;;;;5060586;28;48536;-80
2021/07/09 05:00:08;;;;;;;27.90;13.93;;;;;;;;;;5070791;28;38495;-80
2021/07/09 05:02:40;;;;;;;21.25;14.15;;;;;;;;;;5071766;28;48663;-80
2021/07/09 05:05:07;;;;;;;19.40;13.50;;;;;;;;;;5064185;28;38946;-80
2021/07/09 05:07:37;;;;;;;19.75;13.80;;;;;;;;;;5082700;28;37677;-80
2021/07/09 05:10:04;;;;;;;21.27;13.02;;;;;;;;;;5077188;28;38521;-81
2021/07/09 05:12:32;;;;;;;22.00;13.70;;;;;;;;;;5079338;28;48207;-81
2021/07/09 05:15:05;;;;;;;22.55;15.30;;;;;;;;;;5082271;28;38953;-81
2021/07/09 05:17:31;;;;;;;;;;;;;;;;;;5072646;28;47522;-80
2021/07/09 05:19:58;;;;;;;23.23;13.50;;;;;;;;;;5090498;28;38420;-80
2021/07/09 05:22:24;;;;;;;19.83;13.20;;;;;;;;;;5087053;28;35930;-81
2021/07/09 05:24:55;;;;;;;22.20;15.55;;;;;;;;;;5089278;28;39391;-80
2021/07/09 05:27:23;;;;;;;24.60;13.85;;;;;;;;;;5087095;28;39904;-80
2021/07/09 05:29:50;;;;;;;19.35;13.48;;;;;;;;;;5080119;28;37558;-80
2021/07/09 05:32:21;;;;;;;21.63;14.10;;;;;;;;;;5064412;28;37169;-80
2021/07/09 05:34:47;;;;;;;18.70;12.40;;;;;;;;;;5075604;28;38712;-79
2021/07/09 05:37:15;;;;;;;19.50;12.77;;;;;;;;;;5080484;28;37379;-79
2021/07/09 05:39:48;;;;;;;18.98;12.60;;;;;;;;;;5066416;28;38121;-80
2021/07/09 05:42:14;;;;;;;21.42;14.15;;;;;;;;;;5075256;28;37212;-80
2021/07/09 05:44:46;;;;;;;21.95;13.40;;;;;;;;;;5074066;28;38022;-79
2021/07/09 05:47:13;;;;;;;20.75;14.10;;;;;;;;;;5063339;28;38980;-80
2021/07/09 05:49:40;;;;;;;21.17;14.68;;;;;;;;;;5064428;28;38746;-79
2021/07/09 05:52:06;;;;;;;25.08;14.88;;;;;;;;;;5053833;28;39130;-79
2021/07/09 05:54:33;;;;;;;21.73;14.38;;;;;;;;;;5073357;28;37784;-80
2021/07/09 05:57:01;;;;;;;21.05;15.10;;;;;;;;;;5080662;28;37382;-79
2021/07/09 05:59:27;;;;;;;19.88;14.25;;;;;;;;;;5065837;28;48717;-79
2021/07/09 06:01:54;;;;;;;19.70;13.93;;;;;;;;;;5078659;28;38893;-79
2021/07/09 06:04:20;;;;;;;17.80;13.10;;;;;;;;;;5079037;28;40191;-80
2021/07/09 06:10:26;;;;;;;20.58;12.40;;;;;;;;;;5093817;28;50334;-82
2021/07/09 06:12:52;;;;;;;16.23;10.95;;;;;;;;;;5275640;22;48986;-80
2021/07/09 06:15:23;;;;;;;17.48;11.55;;;;;;;;;;5175828;22;39236;-79
2021/07/09 06:17:49;;;;;;;15.00;10.85;;;;;;;;;;5068061;28;39752;-80
2021/07/09 06:20:20;;;;;;;11.88;8.75;;;;;;;;;;5065154;28;39393;-81
2021/07/09 06:22:47;;;;;;;14.68;9.07;;;;;;;;;;5570053;22;37596;-81
2021/07/09 06:28:03;;;;;;;13.93;9.15;;;;;;;;;;5325706;22;20049;-79
2021/07/09 06:30:32;;;;;;;13.02;9.55;;;;;;;;;;5080220;28;37440;-79
2021/07/09 06:33:09;;;;;;;13.68;8.80;;;;;;;;;;5083076;28;37096;-77
2021/07/09 06:36:00;;;;;;;14.40;8.75;;;;;;;;;;5073479;28;48900;-81
2021/07/09 06:38:29;;;;;;;15.82;9.43;;;;;;;;;;5094716;28;39110;-81
2021/07/09 06:41:00;;;;;;;11.40;8.77;;;;;;;;;;5095317;28;38485;-80
2021/07/09 06:46:12;;;;;;;17.10;10.57;;;;;;;;;;5864340;22;20020;-79
2021/07/09 06:48:45;;;;;;;12.23;9.63;;;;;;;;;;5089787;28;37037;-80
2021/07/09 06:51:11;;;;;;;14.93;10.18;;;;;;;;;;5077771;28;37076;-79
2021/07/09 06:53:39;;;;;;;14.32;9.90;;;;;;;;;;5069537;28;36174;-79
2021/07/09 06:56:06;;;;;;;14.45;9.80;;;;;;;;;;5063242;28;38353;-79
2021/07/09 06:58:32;;;;;;;11.73;8.93;;;;;;;;;;5077285;28;38622;-79
2021/07/09 07:00:59;;;;;;;16.48;10.00;;;;;;;;;;5075821;28;36875;-79
2021/07/09 07:03:25;;;;;;;16.90;9.82;;;;;;;;;;5079349;28;36993;-76
2021/07/09 07:05:51;;;;;;;13.77;9.40;;;;;;;;;;5073876;28;39628;-78
2021/07/09 07:08:19;;;;;;;13.65;8.30;;;;;;;;;;5071169;28;39746;-78
2021/07/09 07:10:46;;;;;;;13.85;8.35;;;;;;;;;;5085537;28;36998;-80
2021/07/09 07:13:12;;;;;;;12.15;7.78;;;;;;;;;;5075530;28;33895;-80
2021/07/09 07:15:39;;;;;;;10.68;7.53;;;;;;;;;;5079307;28;39015;-78
2021/07/09 07:18:08;;;;;;;11.23;8.35;;;;;;;;;;5073989;28;37420;-76
2021/07/09 07:20:41;;;;;;;13.20;7.70;;;;;;;;;;5091219;28;37263;-79
2021/07/09 07:23:12;;;;;;;8.07;6.93;;;;;;;;;;5078664;28;38412;-81
2021/07/09 07:25:39;;;;;;;10.93;7.93;;;;;;;;;;5085429;28;39324;-78
2021/07/09 07:28:07;;;;;;;14.18;8.40;;;;;;;;;;5074239;28;37660;-80
2021/07/09 07:30:35;;;;;;;15.55;9.55;;;;;;;;;;5079288;28;38665;-81
2021/07/09 07:33:02;;;;;;;11.75;8.45;;;;;;;;;;5066890;28;37422;-79
2021/07/09 07:35:30;;;;;;;11.20;8.32;;;;;;;;;;5064221;28;38972;-79
2021/07/09 07:37:57;;;;;;;17.00;9.90;;;;;;;;;;5079674;28;37890;-80
2021/07/09 07:40:23;;;;;;;12.60;9.25;;;;;;;;;;5088159;28;39284;-80
2021/07/09 07:42:50;;;;;;;14.45;9.30;;;;;;;;;;5079972;28;35666;-79
2021/07/09 07:45:16;;;;;;;10.57;8.18;;;;;;;;;;5073186;28;37877;-77
2021/07/09 07:47:43;;;;;;;11.15;8.85;;;;;;;;;;5076687;28;37131;-79
2021/07/09 07:50:11;;;;;;;8.88;6.75;;;;;;;;;;5066812;28;38078;-79
2021/07/09 07:57:52;;;;;;;12.93;9.32;;;;;;;;;;6064149;22;20046;-81
2021/07/09 08:00:30;;;;;;;12.45;9.02;;;;;;;;;;5070930;28;37886;-82
2021/07/09 08:02:56;;;;;;;13.32;9.98;;;;;;;;;;5067588;28;38355;-81
2021/07/09 08:08:00;;;;;;;14.10;9.70;;;;;;;;;;5626956;22;20039;-82
2021/07/09 08:39:06;;;;;;;14.07;9.55;;;;;;;;;;5697755;22;20056;-82
2021/07/09 08:44:35;;;;;;;;;;;;;;;;;;5313218;22;20044;-81
2021/07/09 09:15:24;;;;;;;7.88;6.50;;;;;;;;;;5720960;22;20046;-79
2021/07/09 09:31:36;;;;;;;10.77;8.98;;;;;;;;;;5524042;22;20021;-81
2021/07/09 09:36:38;;;;;;;11.73;10.18;;;;;;;;;;6007334;22;20178;-80
2021/07/09 09:39:16;;;;;;;11.90;9.40;;;;;;;;;;5288409;22;36946;-78
2021/07/09 09:41:43;;;;;;;10.57;8.77;;;;;;;;;;5060137;28;37954;-79
2021/07/09 09:44:18;;;;;;;11.95;10.65;;;;;;;;;;5065903;28;38371;-81
2021/07/09 09:46:44;;;;;;;14.20;9.95;;;;;;;;;;5049394;28;38483;-80
2021/07/09 09:49:19;;;;;;;12.40;9.00;;;;;;;;;;5070061;22;37783;-81
2021/07/09 09:54:33;;;;;;;9.50;6.80;;;;;;;;;;5785267;22;20022;-81
2021/07/09 09:56:59;;;;;;;7.93;7.13;;;;;;;;;;5074945;28;38600;-79
2021/07/09 09:59:31;;;;;;;8.65;7.20;;;;;;;;;;5098918;28;35818;-81
2021/07/09 10:15:40;;;;;;;7.80;7.00;;;;;;;;;;5339197;22;20037;-80
2021/07/09 10:18:09;;;;;;;9.65;7.38;;;;;;;;;;5076410;28;37872;-78
2021/07/09 10:20:36;;;;;;;10.57;7.10;;;;;;;;;;5067389;28;35567;-78
2021/07/09 10:23:03;;;;;;;11.15;8.15;;;;;;;;;;5072096;28;37603;-81
2021/07/09 10:25:30;;;;;;;11.68;8.13;;;;;;;;;;5092691;28;37909;-79
2021/07/09 10:27:57;;;;;;;10.60;8.05;;;;;;;;;;5073345;28;37615;-79
2021/07/09 10:30:34;;;;;;;13.95;11.02;;;;;;;;;;5076074;28;35980;-80
2021/07/09 10:33:00;;;;;;;13.38;10.10;;;;;;;;;;5080197;28;38946;-80
2021/07/09 10:35:42;;;;;;;16.10;12.30;;;;;;;;;;5082681;28;40320;-79
2021/07/09 10:38:15;;;;;;;16.13;12.70;;;;;;;;;;5063376;28;37200;-80
2021/07/09 10:40:42;;;;;;;19.55;13.57;;;;;;;;;;5075110;28;36238;-80
2021/07/09 10:43:18;;;;;;;17.67;14.18;;;;;;;;;;5083393;28;40376;-80
2021/07/09 10:45:45;;;;;;;17.25;15.45;;;;;;;;;;5089731;28;39008;-79
2021/07/09 10:48:19;;;;;;;16.83;14.90;;;;;;;;;;5087399;28;38703;-80
2021/07/09 10:50:57;;;;;;;15.40;13.73;;;;;;;;;;5080555;28;36003;-79
2021/07/09 10:53:41;;;;;;;18.13;15.82;;;;;;;;;;5088984;28;38139;-80
2021/07/09 10:56:32;;;;;;;17.38;14.02;;;;;;;;;;5075739;28;38462;-78
2021/07/09 11:09:44;;;;;;;17.50;15.18;;;;;;;;;;6061473;22;20041;-80
2021/07/09 11:12:13;;;;;;;14.30;12.38;;;;;;;;;;5086953;28;38494;-80
2021/07/09 11:20:30;;;;;;;14.65;12.20;;;;;;;;;;6223682;22;20020;31
2021/07/09 11:25:48;;;;;;;10.90;9.77;;;;;;;;;;5730275;22;20044;-82
2021/07/09 12:10:42;;;;;;;10.38;8.75;;;;;;;;;;6259251;22;20016;31
2021/07/09 14:14:15;;;;;;;7.93;5.50;;;;;;;;;;5776175;22;20182;-81
2021/07/09 15:15:08;;;;;;;7.55;5.70;;;;;;;;;;6223071;22;20016;31
2021/07/09 15:17:58;;;;;;;9.90;6.55;;;;;;;;;;5025097;28;38765;-81
2021/07/09 15:20:45;;;;;;;6.80;6.10;;;;;;;;;;5034808;28;40334;-79
2021/07/09 15:23:20;;;;;;;8.65;6.28;;;;;;;;;;5051558;28;39966;-82
2021/07/09 15:30:59;;;;;;;6.55;5.25;;;;;;;;;;5509519;23;20068;-81
2021/07/09 15:33:33;;;;;;;5.90;5.30;;;;;;;;;;5071473;28;39049;-80
2021/07/09 15:38:39;;;;;;;6.47;5.38;;;;;;;;;;5459948;22;20017;-84
2021/07/09 15:46:45;;;;;;;8.10;4.57;;;;;;;;;;5078316;28;20057;-80
2021/07/09 15:49:14;;;;;;;4.97;3.83;;;;;;;;;;5078238;28;37498;-81
2021/07/09 15:51:40;;;;;;;4.97;4.18;;;;;;;;;;5085961;28;37558;-81
2021/07/09 15:54:08;;;;;;;4.70;4.28;;;;;;;;;;5077186;28;38316;-80
2021/07/09 16:04:24;;;;;;;9.10;5.85;;;;;;;;;;5859785;22;20053;-81
2021/07/09 16:14:39;;;;;;;7.22;5.20;;;;;;;;;;5632968;22;20041;-82
2021/07/09 16:22:48;;;;;;;5.88;4.07;;;;;;;;;;5853361;22;20646;-80
2021/07/09 16:27:55;;;;;;;5.70;4.93;;;;;;;;;;5182583;22;20043;-81
2021/07/09 16:30:47;;;;;;;7.53;4.95;;;;;;;;;;5073376;27;36416;-80
2021/07/09 16:33:31;;;;;;;5.68;4.75;;;;;;;;;;5714827;22;20039;-80
2021/07/09 16:35:59;;;;;;;5.72;4.97;;;;;;;;;;5083172;28;38239;-80
2021/07/09 16:38:29;;;;;;;8.57;5.53;;;;;;;;;;5077914;28;38571;-81
2021/07/09 16:46:56;;;;;;;;;;;;;;;;;;;;;
2021/07/09 17:17:44;;;;;;;7.93;6.15;;;;;;;;;;5870108;22;20020;-80
2021/07/09 18:18:59;;;;;;;16.13;11.93;;;;;;;;;;6196165;22;20020;31
2021/07/09 18:21:59;;;;;;;14.18;11.63;;;;;;;;;;5022495;28;37251;-83
2021/07/09 18:44:15;;;;;;;16.65;13.20;;;;;;;;;;5017203;22;20055;-81
2021/07/09 18:46:54;;;;;;;18.67;13.68;;;;;;;;;;5076944;28;37220;-81
2021/07/09 18:49:22;;;;;;;16.52;13.30;;;;;;;;;;5093135;28;38759;-81
2021/07/09 18:52:01;;;;;;;18.52;14.30;;;;;;;;;;5098185;28;39953;-81
2021/07/09 18:54:46;;;;;;;19.02;14.73;;;;;;;;;;5091336;28;49977;-81
2021/07/09 18:57:31;;;;;;;19.48;14.48;;;;;;;;;;5097067;28;37197;-83
2021/07/09 18:59:58;;;;;;;18.88;14.90;;;;;;;;;;5093647;28;39358;-82
2021/07/09 19:05:00;;;;;;;19.50;14.90;;;;;;;;;;4946194;26;20042;-81
2021/07/09 19:07:41;;;;;;;20.83;14.77;;;;;;;;;;5055437;28;37397;-82
2021/07/09 19:15:20;;;;;;;23.83;17.27;;;;;;;;;;6138795;22;21172;-81
2021/07/09 19:26:54;;;;;;;20.77;15.60;;;;;;;;;;5122073;22;20063;-80
2021/07/09 19:29:23;;;;;;;18.38;15.07;;;;;;;;;;5090417;28;35952;-82
2021/07/09 19:31:50;;;;;;;22.45;15.55;;;;;;;;;;5086617;28;40282;-81
2021/07/09 19:34:17;;;;;;;21.73;15.48;;;;;;;;;;5069873;28;38475;-78
2021/07/09 19:36:46;;;;;;;19.65;15.20;;;;;;;;;;5078960;28;37715;-81
2021/07/09 19:39:13;;;;;;;19.77;14.57;;;;;;;;;;5065828;28;36881;-81
2021/07/09 19:41:42;;;;;;;18.38;14.18;;;;;;;;;;5089145;28;39226;-82
2021/07/09 19:46:45;;;;;;;19.95;14.68;;;;;;;;;;5665651;22;20016;-80
2021/07/09 19:49:29;;;;;;;21.45;15.27;;;;;;;;;;5092974;28;38407;-83
2021/07/09 19:51:56;;;;;;;17.50;14.10;;;;;;;;;;5242990;22;39283;-83
2021/07/09 20:02:14;;;;;;;22.20;15.32;;;;;;;;;;5906500;22;20077;-82
2021/07/09 20:04:55;;;;;;;19.63;14.55;;;;;;;;;;5073706;28;38605;-83
2021/07/09 20:07:21;;;;;;;20.25;14.30;;;;;;;;;;5229928;22;38891;-82
2021/07/09 20:23:58;;;;;;;19.40;14.63;;;;;;;;;;5850137;22;20043;-81
2021/07/09 20:26:36;;;;;;;16.45;12.10;;;;;;;;;;5090968;28;37409;-80
2021/07/09 20:31:43;;;;;;;17.02;13.18;;;;;;;;;;5979123;22;20049;-81
2021/07/09 20:34:15;;;;;;;20.63;13.02;;;;;;;;;;5082656;27;38879;-81
2021/07/09 20:41:57;;;;;;;20.10;13.45;;;;;;;;;;6125612;22;20020;-82
2021/07/09 21:00:10;;;;;;;18.38;13.98;;;;;;;;;;5374126;22;20043;-81
2021/07/09 23:34:04;;;;;;;;;;;;;;;;;;5829034;22;19924;-84
2021/07/09 23:59:14;;;;;;;29.52;20.83;;;;;;;;;;6029082;22;20027;-82
